createdAt,value
2022-08-29T00:02:36.241Z,97.68
2022-08-29T00:05:39.833Z,97.92
2022-08-29T00:08:41.749Z,98.50
2022-08-29T00:11:43.455Z,99.60
2022-08-29T00:14:48.227Z,99.16
2022-08-29T00:17:49.805Z,99.36
2022-08-29T00:20:51.440Z,99.75
2022-08-29T00:23:53.101Z,99.40
2022-08-29T00:26:54.740Z,99.97
2022-08-29T00:29:56.350Z,100.00
2022-08-29T00:32:58.216Z,100.00
2022-08-29T00:35:59.804Z,100.00
2022-08-29T00:39:01.568Z,100.00
2022-08-29T00:42:03.763Z,100.00
2022-08-29T00:45:06.417Z,100.00
2022-08-29T00:48:09.474Z,100.00
2022-08-29T00:51:13.231Z,100.00
2022-08-29T00:54:15.022Z,100.00
2022-08-29T00:57:17.867Z,100.00
2022-08-29T01:00:19.497Z,100.00
2022-08-29T01:03:21.324Z,100.00
2022-08-29T01:06:23.967Z,100.00
2022-08-29T01:09:25.690Z,100.00
2022-08-29T01:12:27.581Z,100.00
2022-08-29T01:15:30.904Z,99.95
2022-08-29T01:18:33.423Z,99.81
2022-08-29T01:21:39.693Z,99.54
2022-08-29T01:24:42.726Z,99.70
2022-08-29T01:27:44.786Z,98.65
2022-08-29T01:31:03.101Z,98.94
2022-08-29T01:34:04.753Z,99.71
2022-08-29T01:37:07.030Z,99.31
2022-08-29T01:40:09.134Z,99.02
2022-08-29T01:43:10.823Z,97.89
2022-08-29T01:46:14.442Z,98.10
2022-08-29T01:49:16.649Z,98.48
2022-08-29T01:52:18.352Z,98.74
2022-08-29T01:55:20.245Z,98.76
2022-08-29T01:58:22.090Z,98.61
2022-08-29T02:01:25.504Z,98.53
2022-08-29T02:04:27.474Z,98.34
2022-08-29T02:07:29.550Z,98.28
2022-08-29T02:10:31.725Z,98.14
2022-08-29T02:13:33.482Z,97.95
2022-08-29T02:16:35.176Z,97.57
2022-08-29T02:19:38.065Z,97.10
2022-08-29T02:22:40.066Z,97.23
2022-08-29T02:25:41.657Z,97.21
2022-08-29T02:28:43.315Z,97.16
2022-08-29T02:31:44.967Z,97.88
2022-08-29T02:34:48.437Z,98.00
2022-08-29T02:37:50.378Z,97.81
2022-08-29T02:40:52.458Z,97.74
2022-08-29T02:43:54.543Z,98.13
2022-08-29T02:46:56.371Z,98.09
2022-08-29T02:49:58.625Z,98.44
2022-08-29T02:53:00.327Z,99.39
2022-08-29T02:56:02.238Z,98.90
2022-08-29T02:59:04.344Z,99.31
2022-08-29T03:02:06.100Z,98.87
2022-08-29T03:05:07.948Z,99.26
2022-08-29T03:08:11.553Z,99.34
2022-08-29T03:11:14.073Z,99.09
2022-08-29T03:14:17.618Z,99.27
2022-08-29T03:17:19.239Z,99.19
2022-08-29T03:20:21.555Z,98.39
2022-08-29T03:23:23.214Z,98.31
2022-08-29T03:26:25.509Z,98.68
2022-08-29T03:29:27.325Z,98.33
2022-08-29T03:32:29.686Z,98.55
2022-08-29T03:35:31.644Z,98.54
2022-08-29T03:38:33.359Z,98.45
2022-08-29T03:41:35.561Z,98.19
2022-08-29T03:44:37.586Z,98.22
2022-08-29T03:47:39.512Z,97.85
2022-08-29T03:50:41.114Z,97.96
2022-08-29T03:53:42.824Z,97.72
2022-08-29T03:56:44.431Z,97.89
2022-08-29T03:59:48.243Z,97.98
2022-08-29T04:02:55.878Z,97.62
2022-08-29T04:05:57.665Z,97.85
2022-08-29T04:08:59.332Z,97.00
2022-08-29T04:12:01.577Z,97.36
2022-08-29T04:15:03.999Z,96.64
2022-08-29T04:18:07.076Z,96.91
2022-08-29T04:21:08.977Z,96.42
2022-08-29T04:24:10.802Z,96.39
2022-08-29T04:27:12.401Z,96.42
2022-08-29T04:30:15.262Z,96.53
2022-08-29T04:33:22.550Z,96.41
2022-08-29T04:36:24.787Z,95.95
2022-08-29T04:39:26.412Z,95.31
2022-08-29T04:42:28.042Z,95.48
2022-08-29T04:45:29.726Z,95.56
2022-08-29T04:48:31.420Z,95.69
2022-08-29T04:51:34.600Z,95.59
2022-08-29T04:54:36.282Z,95.19
2022-08-29T04:57:38.284Z,95.04
2022-08-29T05:00:40.218Z,94.66
2022-08-29T05:03:42.053Z,94.32
2022-08-29T05:06:43.704Z,94.01
2022-08-29T05:09:45.315Z,94.64
2022-08-29T05:12:46.986Z,94.55
2022-08-29T05:15:49.199Z,94.79
2022-08-29T05:18:50.918Z,94.73
2022-08-29T05:21:57.915Z,94.25
2022-08-29T05:24:59.513Z,94.50
2022-08-29T05:28:01.127Z,94.23
2022-08-29T05:31:02.761Z,94.58
2022-08-29T05:34:16.218Z,95.78
2022-08-29T05:37:26.793Z,96.29
2022-08-29T05:40:28.638Z,96.36
2022-08-29T05:43:30.258Z,96.75
2022-08-29T05:46:31.913Z,97.15
2022-08-29T05:49:35.359Z,97.38
2022-08-29T05:52:36.918Z,97.62
2022-08-29T05:55:42.217Z,97.59
2022-08-29T05:58:43.882Z,97.01
2022-08-29T06:01:47.166Z,97.07
2022-08-29T06:04:48.839Z,97.01
2022-08-29T06:07:50.386Z,96.68
2022-08-29T06:10:51.982Z,96.13
2022-08-29T06:13:53.563Z,95.93
2022-08-29T06:16:55.370Z,95.85
2022-08-29T06:19:57.058Z,95.16
2022-08-29T06:22:58.680Z,94.57
2022-08-29T06:26:00.424Z,94.19
2022-08-29T06:29:06.405Z,93.48
2022-08-29T06:32:07.958Z,92.63
2022-08-29T06:35:09.622Z,92.25
2022-08-29T06:38:14.078Z,91.30
2022-08-29T06:41:16.318Z,90.90
2022-08-29T06:44:18.966Z,91.00
2022-08-29T06:47:20.593Z,89.62
2022-08-29T06:50:22.160Z,88.98
2022-08-29T06:53:31.813Z,88.54
2022-08-29T06:56:34.339Z,88.13
2022-08-29T06:59:38.594Z,88.23
2022-08-29T07:02:40.617Z,87.65
2022-08-29T07:05:42.570Z,87.25
2022-08-29T07:08:55.209Z,86.78
2022-08-29T07:11:58.198Z,86.52
2022-08-29T07:14:59.781Z,86.29
2022-08-29T07:18:01.382Z,86.54
2022-08-29T07:21:09.713Z,85.54
2022-08-29T07:24:11.338Z,84.69
2022-08-29T07:27:13.777Z,84.88
2022-08-29T07:30:16.601Z,84.53
2022-08-29T07:33:18.206Z,84.79
2022-08-29T07:36:19.782Z,84.50
2022-08-29T07:39:23.200Z,83.91
2022-08-29T07:42:24.769Z,83.37
2022-08-29T07:45:26.416Z,83.31
2022-08-29T07:48:28.053Z,83.03
2022-08-29T07:51:29.988Z,82.88
2022-08-29T07:54:31.648Z,81.79
2022-08-29T07:57:33.596Z,80.44
2022-08-29T08:00:41.310Z,79.64
2022-08-29T08:03:43.080Z,80.04
2022-08-29T08:06:49.814Z,80.10
2022-08-29T08:09:51.379Z,80.21
2022-08-29T08:12:53.028Z,79.02
2022-08-29T08:15:55.574Z,77.94
2022-08-29T08:18:57.418Z,76.77
2022-08-29T08:21:59.489Z,75.89
2022-08-29T08:25:01.246Z,75.41
2022-08-29T08:28:03.624Z,75.12
2022-08-29T08:31:06.799Z,74.84
2022-08-29T08:34:08.627Z,75.04
2022-08-29T08:37:10.290Z,75.05
2022-08-29T08:40:21.308Z,74.54
2022-08-29T08:43:26.995Z,74.96
2022-08-29T08:46:31.227Z,75.82
2022-08-29T08:49:52.235Z,76.24
2022-08-29T08:53:04.499Z,76.38
2022-08-29T08:56:12.897Z,77.76
2022-08-29T08:59:16.320Z,75.26
2022-08-29T09:02:33.851Z,75.38
2022-08-29T09:05:57.605Z,76.60
2022-08-29T09:09:38.503Z,76.27
2022-08-29T09:12:58.854Z,78.06
2022-08-29T09:16:01.034Z,77.13
2022-08-29T09:19:05.021Z,77.96
2022-08-29T09:22:11.457Z,79.22
2022-08-29T09:25:15.472Z,77.43
2022-08-29T09:28:17.261Z,77.15
2022-08-29T09:31:21.623Z,77.54
2022-08-29T09:34:57.084Z,78.19
2022-08-29T09:37:56.143Z,77.88
2022-08-29T09:40:59.196Z,78.20
2022-08-29T09:44:00.858Z,78.87
2022-08-29T09:47:37.053Z,80.79
2022-08-29T09:50:38.679Z,82.90
2022-08-29T09:53:40.466Z,83.58
2022-08-29T09:56:50.649Z,83.39
2022-08-29T10:00:07.840Z,82.29
2022-08-29T10:03:11.584Z,81.10
2022-08-29T10:06:15.446Z,79.85
2022-08-29T10:09:27.484Z,78.39
2022-08-29T10:12:38.367Z,77.85
2022-08-29T10:15:51.173Z,77.89
2022-08-29T10:18:58.806Z,77.78
2022-08-29T10:22:02.977Z,77.82
2022-08-29T10:25:10.867Z,79.60
2022-08-29T10:28:19.390Z,81.89
2022-08-29T10:31:26.250Z,82.92
2022-08-29T10:34:31.785Z,84.00
2022-08-29T10:37:52.425Z,83.97
2022-08-29T10:41:03.192Z,80.50
2022-08-29T10:44:04.978Z,78.46
2022-08-29T10:47:39.174Z,77.66
2022-08-29T10:50:46.057Z,79.39
2022-08-29T10:53:51.109Z,81.42
2022-08-29T10:56:52.810Z,81.57
2022-08-29T11:00:20.720Z,80.96
2022-08-29T11:03:41.318Z,80.05
2022-08-29T11:07:03.190Z,79.21
2022-08-29T11:10:11.008Z,77.86
2022-08-29T11:13:18.201Z,77.21
2022-08-29T11:16:24.701Z,77.56
2022-08-29T11:19:28.743Z,76.33
2022-08-29T11:22:39.754Z,73.76
2022-08-29T11:25:42.034Z,71.74
2022-08-29T11:28:46.712Z,71.74
2022-08-29T11:32:00.031Z,71.47
2022-08-29T11:35:22.666Z,69.35
2022-08-29T11:38:24.297Z,70.66
2022-08-29T11:41:27.744Z,70.94
2022-08-29T11:44:30.046Z,72.16
2022-08-29T11:47:40.841Z,72.43
2022-08-29T11:50:43.364Z,73.09
2022-08-29T11:53:44.926Z,72.50
2022-08-29T11:56:46.538Z,73.04
2022-08-29T11:59:51.323Z,71.68
2022-08-29T12:02:52.989Z,71.13
2022-08-29T12:05:59.642Z,68.51
2022-08-29T12:09:04.780Z,68.23
2022-08-29T12:12:08.612Z,68.19
2022-08-29T12:15:29.043Z,67.65
2022-08-29T12:18:34.643Z,67.59
2022-08-29T12:21:38.091Z,66.29
2022-08-29T12:24:41.825Z,67.00
2022-08-29T12:28:01.221Z,65.82
2022-08-29T12:31:11.999Z,66.33
2022-08-29T12:34:17.281Z,65.56
2022-08-29T12:37:28.685Z,66.32
2022-08-29T12:40:36.708Z,67.58
2022-08-29T12:43:42.786Z,67.29
2022-08-29T12:46:45.119Z,67.72
2022-08-29T12:49:51.570Z,67.66
2022-08-29T12:52:59.273Z,66.85
2022-08-29T12:56:03.957Z,66.96
2022-08-29T12:59:05.667Z,66.67
2022-08-29T13:02:07.585Z,65.85
2022-08-29T13:05:19.579Z,65.94
2022-08-29T13:08:29.453Z,66.12
2022-08-29T13:11:31.374Z,66.17
2022-08-29T13:14:35.108Z,65.75
2022-08-29T13:17:38.008Z,66.53
2022-08-29T13:20:41.276Z,65.37
2022-08-29T13:23:45.910Z,65.42
2022-08-29T13:27:04.247Z,64.49
2022-08-29T13:30:08.506Z,66.23
2022-08-29T13:33:27.125Z,66.74
2022-08-29T13:36:38.614Z,67.37
2022-08-29T13:39:42.054Z,67.54
2022-08-29T13:42:44.806Z,69.79
2022-08-29T13:45:46.413Z,66.85
2022-08-29T13:48:48.024Z,67.01
2022-08-29T13:51:49.841Z,66.05
2022-08-29T13:54:51.422Z,65.10
2022-08-29T13:57:53.819Z,62.54
2022-08-29T14:00:56.090Z,63.15
2022-08-29T14:04:01.285Z,63.30
2022-08-29T14:07:12.259Z,63.91
2022-08-29T14:10:15.031Z,64.46
2022-08-29T14:13:16.812Z,64.64
2022-08-29T14:16:18.511Z,64.54
2022-08-29T14:19:26.935Z,65.08
2022-08-29T14:22:28.622Z,65.69
2022-08-29T14:25:30.281Z,66.70
2022-08-29T14:28:31.918Z,66.73
2022-08-29T14:31:35.284Z,66.85
2022-08-29T14:34:37.979Z,66.04
2022-08-29T14:37:40.949Z,66.88
2022-08-29T14:40:42.985Z,65.64
2022-08-29T14:43:44.765Z,66.69
2022-08-29T14:46:46.452Z,66.06
2022-08-29T14:49:48.312Z,66.49
2022-08-29T14:52:50.131Z,66.23
2022-08-29T14:55:51.742Z,66.45
2022-08-29T14:58:53.865Z,65.86
2022-08-29T15:01:55.726Z,66.46
2022-08-29T15:04:58.957Z,66.22
2022-08-29T15:08:06.043Z,66.14
2022-08-29T15:11:16.913Z,66.31
2022-08-29T15:14:19.047Z,66.41
2022-08-29T15:17:20.725Z,64.10
2022-08-29T15:20:40.040Z,63.94
2022-08-29T15:23:42.385Z,63.21
2022-08-29T15:26:44.981Z,62.17
2022-08-29T15:29:46.592Z,62.61
2022-08-29T15:32:49.286Z,62.75
2022-08-29T15:35:51.206Z,62.33
2022-08-29T15:38:52.849Z,62.76
2022-08-29T15:41:55.328Z,61.30
2022-08-29T15:44:58.581Z,60.28
2022-08-29T15:48:00.474Z,61.18
2022-08-29T15:51:03.217Z,62.07
2022-08-29T15:54:05.662Z,61.90
2022-08-29T15:57:07.971Z,61.65
2022-08-29T16:00:11.794Z,58.33
2022-08-29T16:03:17.993Z,58.77
2022-08-29T16:06:19.649Z,60.39
2022-08-29T16:09:21.409Z,61.01
2022-08-29T16:12:23.077Z,61.16
2022-08-29T16:15:24.799Z,58.52
2022-08-29T16:18:26.555Z,59.17
2022-08-29T16:21:28.161Z,59.91
2022-08-29T16:24:31.064Z,59.23
2022-08-29T16:27:33.157Z,61.29
2022-08-29T16:30:34.869Z,62.60
2022-08-29T16:33:40.446Z,64.04
2022-08-29T16:36:43.024Z,64.35
2022-08-29T16:39:44.965Z,65.93
2022-08-29T16:42:55.655Z,66.73
2022-08-29T16:45:57.537Z,67.74
2022-08-29T16:49:24.857Z,68.41
2022-08-29T16:52:26.923Z,68.64
2022-08-29T16:55:29.781Z,68.52
2022-08-29T16:58:55.265Z,68.85
2022-08-29T17:01:56.956Z,68.35
2022-08-29T17:04:58.969Z,67.55
2022-08-29T17:08:01.274Z,67.57
2022-08-29T17:11:03.177Z,67.89
2022-08-29T17:14:05.250Z,67.38
2022-08-29T17:17:07.207Z,67.30
2022-08-29T17:20:10.862Z,67.21
2022-08-29T17:23:13.123Z,67.43
2022-08-29T17:26:16.584Z,68.47
2022-08-29T17:29:18.187Z,68.91
2022-08-29T17:32:19.847Z,68.76
2022-08-29T17:35:22.072Z,68.88
2022-08-29T17:38:23.814Z,69.28
2022-08-29T17:41:28.143Z,69.19
2022-08-29T17:44:31.817Z,69.07
2022-08-29T17:47:33.485Z,69.56
2022-08-29T17:50:35.081Z,69.59
2022-08-29T17:53:36.669Z,70.29
2022-08-29T17:56:44.324Z,70.16
2022-08-29T17:59:46.305Z,69.85
2022-08-29T18:02:47.967Z,70.43
2022-08-29T18:05:49.659Z,70.33
2022-08-29T18:08:51.359Z,70.57
2022-08-29T18:11:53.373Z,70.89
2022-08-29T18:14:55.397Z,71.31
2022-08-29T18:17:57.001Z,71.01
2022-08-29T18:20:58.607Z,71.51
2022-08-29T18:24:00.294Z,71.50
2022-08-29T18:27:02.020Z,70.26
2022-08-29T18:30:04.275Z,70.20
2022-08-29T18:33:07.108Z,70.58
2022-08-29T18:36:09.094Z,70.55
2022-08-29T18:39:10.758Z,70.22
2022-08-29T18:42:30.598Z,70.16
2022-08-29T18:45:34.094Z,70.42
2022-08-29T18:48:35.985Z,70.63
2022-08-29T18:51:37.558Z,70.56
2022-08-29T18:54:39.279Z,71.17
2022-08-29T18:57:40.862Z,71.28
2022-08-29T19:00:42.861Z,71.21
2022-08-29T19:03:44.525Z,71.63
2022-08-29T19:06:47.177Z,71.74
2022-08-29T19:10:04.787Z,71.61
2022-08-29T19:13:09.918Z,72.20
2022-08-29T19:16:11.754Z,72.06
2022-08-29T19:19:13.737Z,72.17
2022-08-29T19:22:15.997Z,72.83
2022-08-29T19:25:18.409Z,73.33
2022-08-29T19:28:20.770Z,72.78
2022-08-29T19:31:22.796Z,73.06
2022-08-29T19:34:24.434Z,75.18
2022-08-29T19:37:26.806Z,74.38
2022-08-29T19:40:29.380Z,75.30
2022-08-29T19:43:33.518Z,75.15
2022-08-29T19:46:36.094Z,74.98
2022-08-29T19:49:40.993Z,73.81
2022-08-29T19:52:45.326Z,73.53
2022-08-29T19:55:47.002Z,73.76
2022-08-29T19:58:49.427Z,73.37
2022-08-29T20:01:51.348Z,73.62
2022-08-29T20:04:53.254Z,74.11
2022-08-29T20:07:54.926Z,73.90
2022-08-29T20:10:56.513Z,74.18
2022-08-29T20:13:58.340Z,74.20
2022-08-29T20:17:00.617Z,74.26
2022-08-29T20:20:04.250Z,74.57
2022-08-29T20:23:06.742Z,74.25
2022-08-29T20:26:08.367Z,74.22
2022-08-29T20:29:10.576Z,74.36
2022-08-29T20:32:12.286Z,74.55
2022-08-29T20:35:13.915Z,74.47
2022-08-29T20:38:15.666Z,75.07
2022-08-29T20:41:21.201Z,74.71
2022-08-29T20:44:23.902Z,75.39
2022-08-29T20:47:25.818Z,75.19
2022-08-29T20:53:34.880Z,75.58
2022-08-29T20:56:36.497Z,76.65
2022-08-29T20:59:39.654Z,76.64
2022-08-29T21:02:59.996Z,77.39
2022-08-29T21:06:01.574Z,77.15
2022-08-29T21:09:03.534Z,77.02
2022-08-29T21:12:05.154Z,77.01
2022-08-29T21:15:07.753Z,77.52
2022-08-29T21:18:10.121Z,77.90
2022-08-29T21:21:14.650Z,77.47
2022-08-29T21:24:16.201Z,79.27
2022-08-29T21:27:18.126Z,78.16
2022-08-29T21:30:19.890Z,78.25
2022-08-29T21:33:22.047Z,80.71
2022-08-29T21:36:25.777Z,78.82
2022-08-29T21:39:28.500Z,79.39
2022-08-29T21:42:30.699Z,79.72
2022-08-29T21:45:33.464Z,81.49
2022-08-29T21:48:35.057Z,81.68
2022-08-29T21:51:36.787Z,83.47
2022-08-29T21:54:38.368Z,82.48
2022-08-29T21:57:52.027Z,84.61
2022-08-29T22:00:53.638Z,84.13
2022-08-29T22:03:56.113Z,84.67
2022-08-29T22:06:58.250Z,84.07
2022-08-29T22:10:00.973Z,85.10
2022-08-29T22:13:03.278Z,85.80
2022-08-29T22:16:23.537Z,86.26
2022-08-29T22:19:25.133Z,86.73
2022-08-29T22:22:26.713Z,86.86
2022-08-29T22:25:28.315Z,86.88
2022-08-29T22:28:29.906Z,86.98
2022-08-29T22:31:32.143Z,86.89
2022-08-29T22:34:33.764Z,86.30
2022-08-29T22:37:36.835Z,86.04
2022-08-29T22:40:40.419Z,85.67
2022-08-29T22:43:42.560Z,85.75
2022-08-29T22:46:44.799Z,84.97
2022-08-29T22:49:46.543Z,84.85
2022-08-29T22:52:48.450Z,84.20
2022-08-29T22:55:50.049Z,83.97
2022-08-29T22:58:51.606Z,84.10
2022-08-29T23:01:53.800Z,83.84
2022-08-29T23:04:55.749Z,83.72
2022-08-29T23:07:57.352Z,84.31
2022-08-29T23:10:58.965Z,83.98
2022-08-29T23:14:00.580Z,85.27
2022-08-29T23:17:04.790Z,85.90
2022-08-29T23:20:07.085Z,87.05
2022-08-29T23:23:10.634Z,87.65
2022-08-29T23:26:12.273Z,88.46
2022-08-29T23:29:13.926Z,89.04
2022-08-29T23:32:15.505Z,88.81
2022-08-29T23:35:17.104Z,90.08
2022-08-29T23:38:19.036Z,90.75
2022-08-29T23:41:20.634Z,91.27
2022-08-29T23:44:22.213Z,91.20
2022-08-29T23:47:23.788Z,91.24
2022-08-29T23:50:25.386Z,91.44
2022-08-29T23:53:26.971Z,91.13
2022-08-29T23:56:28.582Z,91.27
2022-08-29T23:59:48.594Z,91.03
